createdAt,value
2018-12-05T00:01:04.335Z,6.90
2018-12-05T00:03:32.419Z,7.00
2018-12-05T00:06:00.593Z,7.00
2018-12-05T00:08:28.682Z,7.10
2018-12-05T00:10:56.746Z,7.10
2018-12-05T00:13:24.854Z,7.10
2018-12-05T00:15:52.939Z,7.10
2018-12-05T00:18:21.059Z,7.00
2018-12-05T00:20:49.118Z,7.00
2018-12-05T00:23:17.202Z,7.10
2018-12-05T00:25:45.302Z,7.20
2018-12-05T00:28:13.399Z,7.20
2018-12-05T00:30:41.447Z,7.20
2018-12-05T00:33:09.542Z,7.20
2018-12-05T00:35:37.620Z,7.20
2018-12-05T00:38:05.713Z,7.20
2018-12-05T00:40:33.859Z,7.20
2018-12-05T00:43:01.926Z,7.10
2018-12-05T00:45:30.027Z,7.10
2018-12-05T00:47:58.096Z,7.00
2018-12-05T00:50:26.161Z,7.10
2018-12-05T00:52:54.238Z,7.20
2018-12-05T00:55:22.337Z,7.20
2018-12-05T00:57:50.395Z,7.20
2018-12-05T01:00:18.479Z,7.20
2018-12-05T01:02:46.577Z,7.10
2018-12-05T01:05:14.660Z,7.10
2018-12-05T01:07:42.718Z,7.10
2018-12-05T01:10:10.892Z,7.10
2018-12-05T01:12:38.977Z,7.10
2018-12-05T01:15:07.326Z,7.10
2018-12-05T01:17:35.410Z,7.10
2018-12-05T01:20:04.072Z,7.10
2018-12-05T01:22:32.148Z,7.20
2018-12-05T01:25:00.221Z,7.10
2018-12-05T01:27:28.311Z,7.20
2018-12-05T01:29:56.418Z,7.10
2018-12-05T01:32:24.536Z,7.10
2018-12-05T01:34:52.592Z,7.00
2018-12-05T01:37:20.682Z,6.90
2018-12-05T01:39:49.524Z,6.90
2018-12-05T01:42:17.615Z,6.90
2018-12-05T01:44:45.950Z,6.80
2018-12-05T01:47:14.014Z,6.80
2018-12-05T01:49:42.105Z,6.70
2018-12-05T01:52:10.180Z,6.70
2018-12-05T01:54:38.271Z,6.60
2018-12-05T01:57:06.341Z,6.50
2018-12-05T01:59:34.415Z,6.40
2018-12-05T02:02:02.512Z,6.40
2018-12-05T02:04:30.595Z,6.40
2018-12-05T02:06:58.673Z,6.40
2018-12-05T02:09:26.754Z,6.40
2018-12-05T02:11:54.837Z,6.50
2018-12-05T02:14:22.930Z,6.50
2018-12-05T02:16:50.987Z,6.60
2018-12-05T02:19:19.888Z,6.50
2018-12-05T02:21:47.959Z,6.50
2018-12-05T02:24:16.055Z,6.30
2018-12-05T02:26:44.143Z,6.30
2018-12-05T02:29:12.249Z,6.30
2018-12-05T02:31:40.346Z,6.30
2018-12-05T02:34:08.413Z,6.40
2018-12-05T02:36:36.473Z,6.50
2018-12-05T02:39:07.339Z,6.50
2018-12-05T02:41:35.443Z,6.60
2018-12-05T02:44:03.886Z,6.70
2018-12-05T02:46:31.967Z,6.70
2018-12-05T02:49:00.029Z,6.70
2018-12-05T02:51:28.115Z,6.60
2018-12-05T02:53:56.178Z,6.60
2018-12-05T02:56:24.247Z,6.70
2018-12-05T02:58:52.321Z,6.60
2018-12-05T03:01:20.382Z,6.60
2018-12-05T03:03:48.470Z,6.50
2018-12-05T03:06:16.568Z,6.40
2018-12-05T03:08:44.647Z,6.40
2018-12-05T03:11:12.857Z,6.40
2018-12-05T03:13:40.960Z,6.40
2018-12-05T03:16:09.027Z,6.30
2018-12-05T03:18:37.124Z,6.30
2018-12-05T03:21:05.192Z,6.30
2018-12-05T03:23:33.475Z,6.30
2018-12-05T03:26:01.510Z,6.30
2018-12-05T03:28:29.574Z,6.30
2018-12-05T03:30:57.690Z,6.40
2018-12-05T03:33:25.767Z,6.40
2018-12-05T03:35:53.874Z,6.30
2018-12-05T03:38:21.942Z,6.30
2018-12-05T03:40:50.027Z,6.20
2018-12-05T03:43:18.136Z,6.20
2018-12-05T03:45:46.218Z,6.20
2018-12-05T03:48:14.296Z,6.20
2018-12-05T03:50:42.397Z,6.20
2018-12-05T03:53:10.488Z,6.20
2018-12-05T03:55:38.594Z,6.20
2018-12-05T03:58:06.654Z,6.20
2018-12-05T04:00:34.760Z,6.10
2018-12-05T04:03:02.842Z,6.10
2018-12-05T04:05:30.905Z,6.10
2018-12-05T04:07:58.995Z,6.10
2018-12-05T04:10:27.066Z,6.00
2018-12-05T04:12:55.157Z,6.10
2018-12-05T04:15:23.218Z,6.10
2018-12-05T04:17:51.299Z,6.10
2018-12-05T04:20:19.391Z,6.10
2018-12-05T04:22:47.460Z,6.10
2018-12-05T04:25:15.555Z,6.00
2018-12-05T04:27:43.629Z,6.00
2018-12-05T04:30:11.782Z,5.90
2018-12-05T04:32:39.863Z,5.90
2018-12-05T04:35:07.972Z,5.90
2018-12-05T04:37:36.073Z,6.00
2018-12-05T04:40:04.696Z,6.00
2018-12-05T04:42:32.762Z,6.00
2018-12-05T04:45:00.822Z,6.00
2018-12-05T04:47:28.909Z,6.00
2018-12-05T04:49:56.988Z,6.00
2018-12-05T04:52:25.096Z,6.00
2018-12-05T04:54:53.158Z,5.90
2018-12-05T04:57:21.251Z,5.90
2018-12-05T04:59:49.322Z,5.90
2018-12-05T05:02:17.419Z,5.90
2018-12-05T05:04:45.490Z,5.90
2018-12-05T05:07:13.623Z,5.90
2018-12-05T05:09:41.697Z,5.90
2018-12-05T05:12:09.764Z,5.80
2018-12-05T05:14:37.878Z,5.80
2018-12-05T05:17:05.953Z,5.70
2018-12-05T05:19:34.084Z,5.70
2018-12-05T05:22:02.183Z,5.70
2018-12-05T05:24:30.226Z,5.60
2018-12-05T05:26:58.327Z,5.60
2018-12-05T05:29:26.441Z,5.70
2018-12-05T05:31:54.532Z,5.70
2018-12-05T05:34:22.604Z,5.70
2018-12-05T05:36:50.711Z,5.80
2018-12-05T05:39:18.784Z,5.70
2018-12-05T05:41:47.067Z,5.80
2018-12-05T05:44:15.147Z,5.80
2018-12-05T05:46:43.237Z,5.80
2018-12-05T05:49:11.307Z,5.80
2018-12-05T05:51:39.399Z,5.70
2018-12-05T05:54:07.503Z,5.70
2018-12-05T05:56:35.704Z,5.70
2018-12-05T05:59:04.023Z,5.70
2018-12-05T06:01:32.150Z,5.70
2018-12-05T06:04:00.261Z,5.70
2018-12-05T06:06:28.334Z,5.80
2018-12-05T06:08:56.426Z,5.70
2018-12-05T06:11:24.506Z,5.70
2018-12-05T06:13:52.608Z,5.70
2018-12-05T06:16:20.669Z,5.70
2018-12-05T06:18:48.764Z,5.70
2018-12-05T06:21:16.844Z,5.70
2018-12-05T06:23:44.922Z,5.70
2018-12-05T06:26:13.022Z,5.70
2018-12-05T06:28:41.118Z,5.80
2018-12-05T06:31:09.196Z,5.80
2018-12-05T06:33:37.303Z,5.80
2018-12-05T06:36:05.475Z,5.70
2018-12-05T06:38:33.561Z,5.70
2018-12-05T06:41:01.750Z,5.70
2018-12-05T06:43:29.851Z,5.70
2018-12-05T06:45:57.921Z,5.70
2018-12-05T06:48:26.017Z,5.70
2018-12-05T06:50:54.111Z,5.70
2018-12-05T06:53:22.163Z,5.60
2018-12-05T06:55:50.272Z,5.60
2018-12-05T06:58:18.320Z,5.60
2018-12-05T07:00:46.495Z,5.60
2018-12-05T07:03:14.573Z,5.60
2018-12-05T07:05:42.673Z,5.60
2018-12-05T07:08:10.744Z,5.70
2018-12-05T07:10:38.892Z,5.70
2018-12-05T07:13:06.949Z,5.70
2018-12-05T07:15:35.046Z,5.70
2018-12-05T07:18:03.228Z,5.70
2018-12-05T07:20:31.314Z,5.70
2018-12-05T07:22:59.391Z,5.70
2018-12-05T07:25:27.515Z,5.70
2018-12-05T07:27:55.599Z,5.70
2018-12-05T07:30:29.437Z,5.70
2018-12-05T07:32:53.750Z,5.70
2018-12-05T07:35:21.856Z,5.70
2018-12-05T07:37:49.941Z,5.70
2018-12-05T07:40:18.070Z,5.70
2018-12-05T07:42:46.298Z,5.70
2018-12-05T07:45:14.461Z,5.80
2018-12-05T07:47:42.518Z,5.80
2018-12-05T07:50:10.607Z,5.80
2018-12-05T07:52:38.689Z,5.90
2018-12-05T07:55:06.875Z,5.90
2018-12-05T07:57:35.002Z,6.00
2018-12-05T08:00:04.673Z,6.00
2018-12-05T08:02:32.734Z,6.00
2018-12-05T08:05:00.824Z,6.00
2018-12-05T08:07:28.916Z,6.00
2018-12-05T08:09:57.018Z,6.00
2018-12-05T08:12:25.123Z,6.10
2018-12-05T08:14:53.208Z,6.00
2018-12-05T08:17:21.353Z,6.00
2018-12-05T08:19:49.428Z,6.10
2018-12-05T08:22:17.550Z,6.10
2018-12-05T08:24:45.628Z,6.10
2018-12-05T08:27:13.714Z,6.20
2018-12-05T08:29:41.874Z,6.20
2018-12-05T08:32:09.950Z,6.10
2018-12-05T08:34:38.034Z,6.10
2018-12-05T08:37:06.208Z,6.20
2018-12-05T08:39:34.257Z,6.20
2018-12-05T08:42:02.318Z,6.20
2018-12-05T08:44:30.388Z,6.20
2018-12-05T08:46:58.482Z,6.30
2018-12-05T08:49:27.335Z,6.30
2018-12-05T08:51:55.422Z,6.30
2018-12-05T08:54:23.521Z,6.40
2018-12-05T08:56:51.631Z,6.40
2018-12-05T08:59:19.704Z,6.40
2018-12-05T09:01:47.899Z,6.40
2018-12-05T09:04:15.998Z,6.50
2018-12-05T09:06:44.102Z,6.60
2018-12-05T09:09:12.188Z,6.60
2018-12-05T09:11:40.251Z,6.60
2018-12-05T09:14:08.332Z,6.60
2018-12-05T09:16:36.396Z,6.60
2018-12-05T09:19:04.465Z,6.70
2018-12-05T09:21:32.564Z,6.60
2018-12-05T09:24:00.668Z,6.80
2018-12-05T09:29:15.445Z,7.00
2018-12-05T09:31:43.526Z,6.90
2018-12-05T09:34:11.596Z,6.90
2018-12-05T09:36:39.673Z,7.00
2018-12-05T09:39:07.834Z,7.10
2018-12-05T09:41:35.926Z,7.20
2018-12-05T09:44:04.158Z,7.20
2018-12-05T09:46:32.252Z,7.30
2018-12-05T09:49:00.326Z,7.50
2018-12-05T09:51:28.424Z,7.70
2018-12-05T09:53:56.487Z,7.80
2018-12-05T09:56:24.576Z,7.80
2018-12-05T09:58:53.029Z,7.90
2018-12-05T10:01:21.185Z,7.90
2018-12-05T10:03:49.247Z,7.90
2018-12-05T10:06:17.335Z,7.90
2018-12-05T10:08:45.415Z,8.00
2018-12-05T10:11:13.491Z,8.30
2018-12-05T10:13:41.578Z,8.70
2018-12-05T10:16:09.629Z,9.40
2018-12-05T10:18:37.723Z,10.10
2018-12-05T10:21:05.818Z,10.30
2018-12-05T10:23:33.904Z,10.20
2018-12-05T10:26:02.090Z,10.10
2018-12-05T10:28:30.179Z,9.80
2018-12-05T10:30:58.263Z,9.60
2018-12-05T10:33:26.386Z,9.50
2018-12-05T10:35:54.476Z,9.30
2018-12-05T10:38:22.572Z,9.20
2018-12-05T10:40:50.670Z,9.10
2018-12-05T10:43:18.817Z,9.00
2018-12-05T10:45:46.952Z,8.90
2018-12-05T10:48:15.024Z,8.80
2018-12-05T10:50:43.113Z,8.80
2018-12-05T10:53:11.203Z,8.80
2018-12-05T10:55:39.283Z,8.80
2018-12-05T10:58:07.443Z,8.90
2018-12-05T11:00:41.083Z,8.90
2018-12-05T11:03:13.800Z,9.00
2018-12-05T11:05:47.672Z,9.10
2018-12-05T11:08:21.776Z,9.20
2018-12-05T11:10:55.521Z,9.10
2018-12-05T11:13:29.200Z,9.00
2018-12-05T11:16:03.311Z,9.00
2018-12-05T11:18:37.227Z,9.10
2018-12-05T11:21:11.086Z,9.10
2018-12-05T11:23:44.997Z,9.20
2018-12-05T11:26:15.042Z,9.20
2018-12-05T11:28:43.188Z,9.20
2018-12-05T11:31:11.260Z,9.10
2018-12-05T11:33:39.400Z,9.00
2018-12-05T11:36:07.546Z,8.90
2018-12-05T11:38:35.647Z,8.80
2018-12-05T11:41:03.875Z,8.80
2018-12-05T11:43:31.960Z,8.90
2018-12-05T11:46:00.061Z,8.90
2018-12-05T11:48:28.148Z,8.90
2018-12-05T11:50:56.243Z,8.90
2018-12-05T11:53:24.320Z,8.90
2018-12-05T11:55:52.403Z,8.90
2018-12-05T11:58:20.520Z,8.90
2018-12-05T12:00:48.615Z,8.70
2018-12-05T12:03:16.704Z,8.70
2018-12-05T12:05:44.809Z,8.80
2018-12-05T12:08:12.879Z,8.70
2018-12-05T12:10:40.945Z,8.70
2018-12-05T12:13:09.295Z,8.80
2018-12-05T12:15:37.355Z,8.90
2018-12-05T12:18:05.632Z,9.00
2018-12-05T12:20:33.696Z,9.00
2018-12-05T12:23:01.782Z,9.00
2018-12-05T12:25:29.835Z,9.00
2018-12-05T12:27:57.920Z,9.00
2018-12-05T12:30:26.019Z,9.10
2018-12-05T12:32:54.245Z,9.10
2018-12-05T12:35:22.454Z,9.00
2018-12-05T12:37:50.572Z,9.00
2018-12-05T12:40:18.660Z,9.00
2018-12-05T12:42:46.743Z,9.10
2018-12-05T12:45:14.916Z,9.20
2018-12-05T12:47:43.687Z,9.30
2018-12-05T12:50:11.777Z,9.30
2018-12-05T12:52:39.885Z,9.40
2018-12-05T12:55:08.106Z,9.30
2018-12-05T12:57:36.313Z,9.30
2018-12-05T13:00:06.130Z,9.30
2018-12-05T13:02:34.227Z,9.30
2018-12-05T13:05:02.317Z,9.50
2018-12-05T13:07:30.407Z,9.40
2018-12-05T13:09:58.473Z,9.40
2018-12-05T13:12:26.563Z,9.40
2018-12-05T13:14:54.620Z,9.30
2018-12-05T13:17:22.704Z,9.40
2018-12-05T13:19:50.798Z,9.50
2018-12-05T13:22:18.906Z,9.50
2018-12-05T13:24:47.002Z,9.50
2018-12-05T13:27:15.074Z,9.50
2018-12-05T13:29:43.173Z,9.50
2018-12-05T13:32:11.270Z,9.50
2018-12-05T13:34:39.351Z,9.40
2018-12-05T13:37:07.524Z,9.40
2018-12-05T13:39:35.597Z,9.40
2018-12-05T13:42:03.707Z,9.50
2018-12-05T13:44:31.805Z,9.40
2018-12-05T13:46:59.900Z,9.50
2018-12-05T13:49:28.718Z,9.50
2018-12-05T13:51:57.056Z,9.50
2018-12-05T13:54:25.139Z,9.50
2018-12-05T13:56:53.563Z,9.50
2018-12-05T13:59:21.639Z,9.50
2018-12-05T14:01:49.727Z,9.50
2018-12-05T14:04:17.818Z,9.50
2018-12-05T14:06:45.900Z,9.60
2018-12-05T14:09:13.998Z,9.60
2018-12-05T14:11:42.059Z,9.60
2018-12-05T14:14:10.143Z,9.50
2018-12-05T14:16:38.234Z,9.60
2018-12-05T14:19:06.318Z,9.50
2018-12-05T14:21:34.420Z,9.50
2018-12-05T14:24:02.515Z,9.50
2018-12-05T14:26:30.596Z,9.40
2018-12-05T14:28:58.707Z,9.40
2018-12-05T14:31:26.875Z,9.40
2018-12-05T14:33:54.964Z,9.30
2018-12-05T14:36:23.092Z,9.30
2018-12-05T14:38:51.207Z,9.40
2018-12-05T14:41:19.427Z,9.40
2018-12-05T14:43:47.564Z,9.40
2018-12-05T14:46:15.702Z,9.30
2018-12-05T14:48:43.819Z,9.30
2018-12-05T14:51:11.866Z,9.30
2018-12-05T14:53:39.941Z,9.40
2018-12-05T14:56:08.015Z,9.40
2018-12-05T14:58:36.104Z,9.40
2018-12-05T15:01:04.264Z,9.40
2018-12-05T15:03:32.345Z,9.40
2018-12-05T15:06:00.429Z,9.30
2018-12-05T15:08:28.508Z,9.30
2018-12-05T15:10:56.625Z,9.30
2018-12-05T15:13:24.782Z,9.30
2018-12-05T15:15:52.874Z,9.30
2018-12-05T15:18:20.951Z,9.30
2018-12-05T15:20:49.063Z,9.30
2018-12-05T15:23:17.147Z,9.30
2018-12-05T15:25:45.264Z,9.20
2018-12-05T15:28:13.337Z,9.20
2018-12-05T15:30:41.434Z,9.20
2018-12-05T15:33:09.479Z,9.20
2018-12-05T15:35:37.573Z,9.10
2018-12-05T15:38:05.660Z,9.10
2018-12-05T15:40:33.728Z,9.20
2018-12-05T15:43:01.839Z,9.10
2018-12-05T15:45:29.915Z,9.20
2018-12-05T15:47:58.032Z,9.20
2018-12-05T15:50:26.111Z,9.20
2018-12-05T15:52:54.306Z,9.20
2018-12-05T15:55:22.370Z,9.20
2018-12-05T15:57:50.464Z,9.20
2018-12-05T16:00:18.538Z,9.20
2018-12-05T16:02:46.632Z,9.10
2018-12-05T16:05:14.735Z,9.00
2018-12-05T16:07:42.840Z,9.00
2018-12-05T16:10:10.888Z,9.00
2018-12-05T16:12:38.997Z,9.00
2018-12-05T16:15:07.317Z,8.90
2018-12-05T16:17:35.395Z,9.00
2018-12-05T16:20:04.419Z,9.00
2018-12-05T16:22:32.562Z,9.00
2018-12-05T16:25:00.647Z,9.00
2018-12-05T16:27:28.737Z,9.00
2018-12-05T16:29:56.811Z,9.00
2018-12-05T16:32:24.908Z,8.90
2018-12-05T16:34:52.969Z,8.90
2018-12-05T16:37:21.067Z,8.90
2018-12-05T16:39:49.147Z,8.90
2018-12-05T16:42:17.256Z,8.80
2018-12-05T16:44:45.323Z,8.90
2018-12-05T16:47:13.410Z,8.90
2018-12-05T16:49:41.537Z,8.90
2018-12-05T16:52:09.612Z,8.90
2018-12-05T16:54:37.976Z,8.90
2018-12-05T16:57:06.038Z,8.90
2018-12-05T16:59:34.143Z,9.00
2018-12-05T17:02:02.236Z,8.90
2018-12-05T17:04:30.334Z,8.90
2018-12-05T17:07:03.760Z,8.90
2018-12-05T17:09:32.412Z,8.90
2018-12-05T17:12:00.501Z,8.70
2018-12-05T17:14:28.571Z,8.70
2018-12-05T17:16:56.680Z,8.60
2018-12-05T17:19:24.735Z,8.40
2018-12-05T17:21:52.827Z,8.40
2018-12-05T17:24:20.898Z,8.30
2018-12-05T17:26:48.985Z,8.30
2018-12-05T17:29:17.213Z,8.20
2018-12-05T17:31:45.312Z,8.20
2018-12-05T17:34:13.357Z,8.20
2018-12-05T17:36:41.457Z,8.20
2018-12-05T17:39:09.532Z,8.10
2018-12-05T17:41:37.621Z,8.00
2018-12-05T17:44:05.703Z,8.00
2018-12-05T17:46:33.810Z,8.00
2018-12-05T17:49:01.891Z,7.90
2018-12-05T17:51:29.996Z,7.80
2018-12-05T17:53:58.157Z,7.80
2018-12-05T17:56:26.247Z,7.80
2018-12-05T17:58:54.355Z,7.70
2018-12-05T18:01:22.433Z,7.70
2018-12-05T18:03:50.541Z,7.70
2018-12-05T18:06:18.614Z,7.60
2018-12-05T18:08:46.687Z,7.50
2018-12-05T18:11:14.768Z,7.50
2018-12-05T18:13:42.835Z,7.40
2018-12-05T18:16:10.911Z,7.40
2018-12-05T18:18:39.279Z,7.30
2018-12-05T18:21:07.370Z,7.40
2018-12-05T18:23:35.502Z,7.40
2018-12-05T18:26:03.693Z,7.40
2018-12-05T18:28:31.803Z,7.30
2018-12-05T18:30:59.870Z,7.30
2018-12-05T18:33:27.928Z,7.30
2018-12-05T18:35:56.040Z,7.40
2018-12-05T18:38:24.105Z,7.30
2018-12-05T18:40:52.177Z,7.30
2018-12-05T18:43:20.262Z,7.30
2018-12-05T18:45:48.348Z,7.30
2018-12-05T18:48:16.406Z,7.30
2018-12-05T18:50:44.522Z,7.30
2018-12-05T18:53:12.624Z,7.30
2018-12-05T18:55:40.712Z,7.40
2018-12-05T18:58:08.831Z,7.40
2018-12-05T19:00:36.888Z,7.40
2018-12-05T19:03:04.984Z,7.40
2018-12-05T19:05:33.062Z,7.40
2018-12-05T19:08:01.190Z,7.50
2018-12-05T19:10:29.247Z,7.50
2018-12-05T19:12:57.362Z,7.50
2018-12-05T19:15:25.554Z,7.60
2018-12-05T19:17:53.678Z,7.60
2018-12-05T19:20:21.754Z,7.60
2018-12-05T19:22:49.827Z,7.70
2018-12-05T19:25:17.941Z,7.70
2018-12-05T19:27:46.033Z,7.80
2018-12-05T19:30:14.149Z,7.90
2018-12-05T19:32:42.231Z,7.90
2018-12-05T19:35:10.470Z,8.00
2018-12-05T19:37:38.671Z,8.00
2018-12-05T19:40:06.795Z,8.10
2018-12-05T19:42:34.902Z,8.20
2018-12-05T19:45:03.402Z,8.30
2018-12-05T19:47:31.561Z,8.30
2018-12-05T19:49:59.643Z,8.40
2018-12-05T19:52:28.698Z,8.40
2018-12-05T19:54:56.778Z,8.50
2018-12-05T19:57:24.868Z,8.50
2018-12-05T19:59:52.980Z,8.60
2018-12-05T20:02:21.169Z,8.60
2018-12-05T20:04:49.297Z,8.70
2018-12-05T20:07:17.415Z,8.70
2018-12-05T20:09:45.522Z,8.80
2018-12-05T20:12:14.315Z,8.80
2018-12-05T20:14:42.386Z,8.90
2018-12-05T20:17:10.691Z,9.00
2018-12-05T20:19:38.861Z,9.00
2018-12-05T20:22:07.007Z,9.00
2018-12-05T20:24:35.104Z,9.00
2018-12-05T20:27:03.235Z,9.00
2018-12-05T20:29:31.567Z,9.00
2018-12-05T20:31:59.659Z,9.10
2018-12-05T20:34:27.748Z,9.10
2018-12-05T20:36:55.815Z,9.10
2018-12-05T20:39:26.207Z,9.20
2018-12-05T20:41:57.916Z,9.20
2018-12-05T20:44:26.003Z,9.30
2018-12-05T20:46:54.210Z,9.30
2018-12-05T20:49:22.288Z,9.30
2018-12-05T20:51:50.396Z,9.30
2018-12-05T20:54:18.505Z,9.40
2018-12-05T20:56:46.606Z,9.30
2018-12-05T20:59:14.730Z,9.30
2018-12-05T21:01:42.859Z,9.30
2018-12-05T21:04:10.944Z,9.30
2018-12-05T21:06:39.095Z,9.30
2018-12-05T21:09:08.243Z,9.30
2018-12-05T21:11:36.456Z,9.40
2018-12-05T21:14:04.553Z,9.40
2018-12-05T21:16:32.757Z,9.40
2018-12-05T21:19:01.067Z,9.40
2018-12-05T21:21:29.189Z,9.40
2018-12-05T21:23:57.251Z,9.40
2018-12-05T21:26:25.367Z,9.50
2018-12-05T21:28:53.450Z,9.50
2018-12-05T21:31:21.598Z,9.50
2018-12-05T21:33:49.665Z,9.60
2018-12-05T21:36:17.711Z,9.60
2018-12-05T21:38:45.868Z,9.70
2018-12-05T21:41:13.939Z,9.70
2018-12-05T21:43:42.027Z,9.80
2018-12-05T21:46:10.169Z,9.80
2018-12-05T21:49:07.517Z,9.70
2018-12-05T21:51:35.612Z,9.60
2018-12-05T21:54:03.708Z,9.60
2018-12-05T21:56:31.780Z,9.70
2018-12-05T21:58:59.856Z,9.80
2018-12-05T22:01:27.919Z,9.80
2018-12-05T22:03:56.057Z,9.70
2018-12-05T22:06:24.210Z,9.70
2018-12-05T22:08:52.306Z,9.90
2018-12-05T22:11:20.449Z,9.90
2018-12-05T22:13:48.535Z,9.80
2018-12-05T22:16:16.610Z,9.80
2018-12-05T22:18:44.700Z,9.80
2018-12-05T22:21:12.818Z,9.90
2018-12-05T22:23:40.925Z,9.80
2018-12-05T22:26:09.003Z,9.90
2018-12-05T22:28:37.072Z,9.90
2018-12-05T22:31:05.151Z,10.00
2018-12-05T22:33:33.223Z,10.00
2018-12-05T22:36:01.314Z,10.10
2018-12-05T22:38:29.372Z,10.10
2018-12-05T22:40:57.555Z,10.10
2018-12-05T22:43:25.652Z,10.10
2018-12-05T22:45:53.715Z,10.10
2018-12-05T22:48:21.791Z,10.10
2018-12-05T22:50:49.867Z,10.00
2018-12-05T22:53:17.958Z,10.00
2018-12-05T22:55:46.049Z,10.00
2018-12-05T22:58:14.116Z,9.90
2018-12-05T23:00:45.351Z,9.90
2018-12-05T23:03:13.433Z,9.90
2018-12-05T23:05:41.492Z,9.90
2018-12-05T23:08:09.558Z,9.90
2018-12-05T23:10:37.659Z,9.80
2018-12-05T23:13:05.721Z,9.80
2018-12-05T23:15:33.803Z,9.80
2018-12-05T23:18:01.889Z,9.80
2018-12-05T23:20:29.993Z,9.80
2018-12-05T23:22:58.043Z,9.70
2018-12-05T23:25:29.487Z,9.60
2018-12-05T23:27:57.605Z,9.50
2018-12-05T23:30:25.634Z,9.50
2018-12-05T23:32:53.738Z,9.50
2018-12-05T23:35:21.834Z,9.40
2018-12-05T23:37:49.916Z,9.40
2018-12-05T23:40:17.967Z,9.50
2018-12-05T23:42:47.935Z,9.60
2018-12-05T23:45:16.379Z,9.70
2018-12-05T23:47:44.542Z,9.70
2018-12-05T23:50:12.608Z,9.70
2018-12-05T23:52:40.749Z,9.80
2018-12-05T23:55:08.820Z,9.80
2018-12-05T23:57:36.930Z,9.80
